Terminal Aerodrome Forecast
Issued by NWS Omaha/Valley, NE

Home | Current Version | Previous Version | Graphics & Text | Print | Product List | Glossary On
Versions: 1 2 3 4 5 6 7 8 9 10 11 12 13
000
FTUS43 KOAX 230534
TAFOFK
TAF
KOFK 230534Z 2306/2406 35010KT P6SM SCT100 SCT250
     FM231000 32012KT P6SM BKN140
     FM231500 32015G23KT P6SM SCT030 BKN120
     FM231800 33017G25KT P6SM SCT040 SCT150
     FM240100 32009KT P6SM FEW200=

USA.gov is the U.S. government's official web portal to all federal, state and local government web resources and services.